Time;durP1;ratioP1;P1;durP2;ratioP2;P2;SDS_P1;SDS_P2;PMS_P1;PMS_P2;Temp;Humidity;BMP_temperature;BMP_pressure;BME280_temperature;BME280_humidity;BME280_pressure;Samples;Min_cycle;Max_cycle;Signal;HPM_P1;HPM_P2
2022/10/16 00:02:11;;;;;;;2.00;1.55;;;17.80;99.90;;;;;;10102297;28;20104;-56
2022/10/16 00:07:02;;;;;;;1.88;1.60;;;17.80;99.90;;;;;;10108720;28;20055;-53
2022/10/16 00:11:53;;;;;;;1.55;1.40;;;17.80;99.90;;;;;;10101856;28;20410;-56
2022/10/16 00:16:44;;;;;;;3.30;1.10;;;17.80;99.90;;;;;;10101620;28;20033;-56
2022/10/16 00:21:41;;;;;;;2.17;1.20;;;17.80;99.90;;;;;;10100439;28;20384;-54
2022/10/16 00:26:34;;;;;;;3.25;1.17;;;17.80;99.90;;;;;;10101417;28;20671;-55
2022/10/16 00:31:25;;;;;;;2.13;1.10;;;17.80;99.90;;;;;;10079478;28;20048;-59
2022/10/16 00:36:18;;;;;;;1.45;1.05;;;17.80;99.90;;;;;;10098036;28;20096;-55
2022/10/16 00:41:18;;;;;;;1.88;1.00;;;17.80;99.90;;;;;;10099316;28;20025;-56
2022/10/16 00:46:27;;;;;;;1.65;0.90;;;17.80;99.90;;;;;;10100509;28;20075;-53
2022/10/16 00:51:21;;;;;;;3.53;1.88;;;17.80;99.90;;;;;;10099566;28;20383;-55
2022/10/16 00:56:12;;;;;;;2.85;1.63;;;17.90;99.90;;;;;;10091261;28;20040;-55
2022/10/16 01:01:03;;;;;;;2.95;1.50;;;17.80;99.90;;;;;;10105406;28;20034;-54
2022/10/16 01:06:14;;;;;;;7.60;1.92;;;17.80;99.90;;;;;;10102141;28;20509;-56
2022/10/16 01:11:18;;;;;;;2.03;1.10;;;17.80;99.90;;;;;;10097661;28;20114;-55
2022/10/16 01:16:33;;;;;;;4.13;1.50;;;17.80;99.90;;;;;;10102510;28;20021;-56
2022/10/16 01:21:31;;;;;;;2.50;1.58;;;17.80;99.90;;;;;;10095833;28;20021;-58
2022/10/16 01:26:34;;;;;;;2.10;1.52;;;17.80;99.90;;;;;;10098049;28;20107;-57
2022/10/16 01:31:29;;;;;;;4.93;2.38;;;17.70;99.90;;;;;;10103994;28;20092;-54
2022/10/16 01:36:30;;;;;;;3.03;1.85;;;17.70;99.90;;;;;;10097280;28;20044;-55
2022/10/16 01:41:36;;;;;;;5.07;1.58;;;17.70;99.90;;;;;;10095996;28;20037;-53
2022/10/16 01:46:27;;;;;;;;;;;17.70;99.90;;;;;;10100487;28;20561;-54
2022/10/16 01:51:20;;;;;;;2.33;1.70;;;17.70;99.90;;;;;;10097084;28;19916;-55
2022/10/16 01:56:13;;;;;;;2.65;1.52;;;17.60;99.90;;;;;;10087582;28;20041;-57
2022/10/16 02:01:06;;;;;;;2.83;1.70;;;17.60;99.90;;;;;;10094804;28;20112;-54
2022/10/16 02:05:58;;;;;;;1.88;1.30;;;17.60;99.90;;;;;;10095391;28;20445;-57
2022/10/16 02:10:49;;;;;;;3.30;1.63;;;17.60;99.90;;;;;;10094258;28;20111;-54
2022/10/16 02:15:40;;;;;;;1.45;1.20;;;17.60;99.90;;;;;;10095052;28;20148;-54
2022/10/16 02:20:40;;;;;;;2.17;1.58;;;17.50;99.90;;;;;;10095464;28;20029;-51
2022/10/16 02:25:36;;;;;;;2.42;1.33;;;17.60;99.90;;;;;;10094582;28;20064;-54
2022/10/16 02:30:36;;;;;;;3.15;1.35;;;17.60;99.90;;;;;;10099938;28;20033;-59
2022/10/16 02:35:28;;;;;;;1.95;1.45;;;17.50;99.90;;;;;;10094314;28;20032;-60
2022/10/16 02:40:19;;;;;;;3.28;1.10;;;17.50;99.90;;;;;;10094594;28;20081;-55
2022/10/16 02:45:11;;;;;;;3.05;1.38;;;17.50;99.90;;;;;;10094000;28;20504;-54
2022/10/16 02:50:02;;;;;;;4.78;1.40;;;17.50;99.90;;;;;;10098057;28;20040;-56
2022/10/16 02:54:53;;;;;;;1.50;1.20;;;17.50;99.90;;;;;;10085823;28;130606;-53
2022/10/16 02:59:44;;;;;;;2.45;1.40;;;17.50;99.90;;;;;;10100143;28;20044;-55
2022/10/16 03:04:35;;;;;;;1.90;1.08;;;17.50;99.90;;;;;;10101894;28;20047;-56
2022/10/16 03:09:25;;;;;;;2.28;1.10;;;17.40;99.90;;;;;;10100928;28;20051;-55
2022/10/16 03:14:16;;;;;;;1.60;1.17;;;17.50;99.90;;;;;;10103059;28;20036;-53
2022/10/16 03:19:06;;;;;;;1.52;1.10;;;17.50;99.90;;;;;;10102596;28;20021;-54
2022/10/16 03:23:57;;;;;;;2.90;1.40;;;17.50;99.90;;;;;;10102362;28;20123;-55
2022/10/16 03:28:47;;;;;;;3.20;1.23;;;17.40;99.90;;;;;;10102718;28;20029;-55
2022/10/16 03:33:38;;;;;;;3.53;1.40;;;17.40;99.90;;;;;;10102583;28;20039;-54
2022/10/16 03:38:29;;;;;;;3.33;1.60;;;17.40;99.90;;;;;;10100201;28;20028;-56
2022/10/16 03:43:19;;;;;;;2.53;1.90;;;17.40;99.90;;;;;;10101902;28;20029;-55
2022/10/16 03:48:11;;;;;;;2.03;1.30;;;17.40;99.90;;;;;;10101967;28;20072;-55
2022/10/16 03:53:01;;;;;;;2.17;1.05;;;17.40;99.90;;;;;;10101559;28;20522;-53
2022/10/16 03:57:52;;;;;;;3.35;1.10;;;17.40;99.90;;;;;;10101883;28;20287;-56
2022/10/16 04:02:43;;;;;;;2.28;1.00;;;17.40;99.90;;;;;;10100950;28;20120;-54
2022/10/16 04:07:33;;;;;;;2.70;1.60;;;17.40;99.90;;;;;;10099312;28;20123;-54
2022/10/16 04:12:25;;;;;;;5.63;2.20;;;17.40;99.90;;;;;;10100991;28;20041;-58
2022/10/16 04:17:16;;;;;;;2.42;1.23;;;17.40;99.90;;;;;;10100659;28;20121;-56
2022/10/16 04:22:07;;;;;;;1.50;1.30;;;17.40;99.90;;;;;;10100698;28;20491;-56
2022/10/16 04:26:57;;;;;;;2.92;1.85;;;17.40;99.90;;;;;;10102332;28;20078;-55
2022/10/16 04:31:48;;;;;;;3.47;1.60;;;17.40;99.90;;;;;;10100139;28;20252;-55
2022/10/16 04:36:38;;;;;;;4.47;1.17;;;17.40;99.90;;;;;;10099896;28;20029;-55
2022/10/16 04:41:29;;;;;;;1.77;1.15;;;17.40;99.90;;;;;;10098654;28;20107;-56
2022/10/16 04:46:20;;;;;;;1.63;1.38;;;17.40;99.90;;;;;;10095266;28;20086;-55
2022/10/16 04:51:11;;;;;;;3.63;1.58;;;17.30;99.90;;;;;;10099415;28;20033;-55
2022/10/16 04:56:02;;;;;;;2.78;1.27;;;17.30;99.90;;;;;;10093934;28;20044;-55
2022/10/16 05:00:52;;;;;;;10.13;1.48;;;17.30;99.90;;;;;;10099385;28;20499;-54
2022/10/16 05:05:44;;;;;;;8.27;1.88;;;17.20;99.90;;;;;;10092050;28;20119;-54
2022/10/16 05:10:35;;;;;;;2.55;1.10;;;17.20;99.90;;;;;;10088540;28;20469;-54
2022/10/16 05:15:25;;;;;;;3.95;1.92;;;17.20;99.90;;;;;;10090096;28;20037;-53
2022/10/16 05:20:16;;;;;;;3.55;1.80;;;17.20;99.90;;;;;;10091586;28;20123;-55
2022/10/16 05:25:07;;;;;;;4.05;1.70;;;17.20;99.90;;;;;;10097246;28;20024;-53
2022/10/16 05:29:57;;;;;;;1.45;1.10;;;17.10;99.90;;;;;;10099652;28;20051;-59
2022/10/16 05:34:48;;;;;;;2.97;1.70;;;17.10;99.90;;;;;;10096555;28;20048;-53
2022/10/16 05:39:39;;;;;;;2.25;1.42;;;17.10;99.90;;;;;;10095100;28;20013;-50
2022/10/16 05:44:30;;;;;;;4.18;1.50;;;17.10;99.90;;;;;;10108221;28;20036;-56
2022/10/16 05:49:20;;;;;;;1.98;1.77;;;17.10;99.90;;;;;;10097150;28;20170;-57
2022/10/16 05:54:11;;;;;;;6.72;1.48;;;17.10;99.90;;;;;;10094387;28;20045;-55
2022/10/16 05:59:03;;;;;;;2.65;1.77;;;17.20;99.90;;;;;;10092849;28;20025;-54
2022/10/16 06:03:54;;;;;;;1.63;1.17;;;17.20;99.90;;;;;;10096823;28;20020;-53
2022/10/16 06:08:46;;;;;;;1.88;1.40;;;17.20;99.90;;;;;;10096573;28;20025;-57
2022/10/16 06:13:36;;;;;;;3.92;1.63;;;17.20;99.90;;;;;;10096715;28;20033;-54
2022/10/16 06:18:28;;;;;;;2.35;1.23;;;17.20;99.90;;;;;;10096502;28;20079;-53
2022/10/16 06:23:19;;;;;;;2.10;1.23;;;17.20;99.90;;;;;;10096328;28;20025;-57
2022/10/16 06:28:10;;;;;;;1.50;1.13;;;17.30;99.90;;;;;;10098069;28;20025;-59
2022/10/16 06:33:00;;;;;;;2.30;1.65;;;17.20;99.90;;;;;;10095337;28;20079;-60
2022/10/16 06:37:53;;;;;;;2.33;1.45;;;17.30;99.90;;;;;;10095996;28;20029;-55
2022/10/16 06:42:43;;;;;;;2.38;1.33;;;17.30;99.90;;;;;;10096109;28;20029;-56
2022/10/16 06:47:34;;;;;;;5.43;1.45;;;17.40;99.90;;;;;;10094514;28;20025;-57
2022/10/16 06:52:27;;;;;;;2.25;1.70;;;17.50;99.90;;;;;;10095550;28;20098;-56
2022/10/16 06:57:17;;;;;;;4.90;1.40;;;17.50;99.90;;;;;;10090147;28;20065;-52
2022/10/16 07:02:09;;;;;;;3.42;1.83;;;17.50;99.90;;;;;;10096110;28;20063;-55
2022/10/16 07:07:00;;;;;;;4.63;1.42;;;17.50;99.90;;;;;;10101217;28;20021;-56
2022/10/16 07:11:51;;;;;;;2.95;1.40;;;17.40;99.90;;;;;;10095986;28;20039;-55
2022/10/16 07:16:42;;;;;;;2.42;1.30;;;17.50;99.90;;;;;;10095623;28;20112;-54
2022/10/16 07:21:37;;;;;;;4.57;1.45;;;17.50;99.90;;;;;;10093439;28;20407;-57
2022/10/16 07:26:30;;;;;;;4.05;1.58;;;17.70;99.90;;;;;;10095925;28;20378;-55
2022/10/16 07:31:21;;;;;;;1.90;1.00;;;17.60;99.90;;;;;;10094950;28;20503;-56
2022/10/16 07:36:12;;;;;;;2.30;1.67;;;17.70;99.90;;;;;;10098392;28;20036;-53
2022/10/16 07:41:06;;;;;;;4.85;2.15;;;17.80;99.90;;;;;;10102509;28;20025;-55
2022/10/16 07:45:57;;;;;;;4.25;1.60;;;17.90;99.90;;;;;;10100071;28;20406;-54
2022/10/16 07:50:47;;;;;;;7.97;3.75;;;18.00;99.90;;;;;;10100301;28;20043;-54
2022/10/16 07:55:38;;;;;;;3.90;2.05;;;18.10;99.90;;;;;;10096300;28;20052;-55
2022/10/16 08:00:29;;;;;;;2.72;1.67;;;18.20;99.90;;;;;;10101448;28;20059;-56
2022/10/16 08:05:20;;;;;;;2.58;1.92;;;18.20;99.90;;;;;;10101591;28;20119;-56
2022/10/16 08:10:20;;;;;;;2.70;1.45;;;18.30;99.90;;;;;;10101699;28;20526;-53
2022/10/16 08:15:11;;;;;;;2.17;1.20;;;18.40;99.90;;;;;;10101037;28;20045;-54
2022/10/16 08:20:02;;;;;;;3.58;1.38;;;18.40;99.90;;;;;;10102073;28;20036;-56
2022/10/16 08:24:53;;;;;;;2.00;1.48;;;18.50;99.90;;;;;;10100587;28;20112;-55
2022/10/16 08:29:44;;;;;;;1.75;1.20;;;18.50;99.90;;;;;;10101441;28;20154;-55
2022/10/16 08:34:34;;;;;;;2.95;1.70;;;18.60;99.90;;;;;;10088436;28;20037;-58
2022/10/16 08:39:25;;;;;;;3.13;1.25;;;18.60;99.90;;;;;;10098044;28;20025;-55
2022/10/16 08:44:54;;;;;;;4.28;1.45;;;18.70;99.90;;;;;;10093243;28;20045;-58
2022/10/16 08:49:59;;;;;;;1.45;1.10;;;18.90;99.90;;;;;;10089253;28;20029;-53
2022/10/16 08:54:54;;;;;;;3.22;1.20;;;19.00;99.90;;;;;;10094358;28;20057;-55
2022/10/16 08:59:45;;;;;;;2.38;1.33;;;19.00;99.90;;;;;;10099644;28;20417;-56
2022/10/16 09:05:06;;;;;;;7.43;1.40;;;19.00;99.90;;;;;;10099133;28;20033;-59
2022/10/16 09:10:00;;;;;;;4.95;1.63;;;19.10;99.90;;;;;;10096742;28;20025;-54
2022/10/16 09:14:58;;;;;;;5.25;1.38;;;19.20;99.90;;;;;;10106679;28;20041;-56
2022/10/16 09:20:12;;;;;;;1.45;0.90;;;19.30;99.90;;;;;;10099068;28;20079;-55
2022/10/16 09:25:13;;;;;;;2.28;1.00;;;19.40;99.90;;;;;;10093429;28;20044;-58
2022/10/16 09:30:15;;;;;;;1.73;0.90;;;19.50;99.90;;;;;;10099636;28;20020;-58
2022/10/16 09:35:19;;;;;;;2.60;1.55;;;19.50;99.90;;;;;;10097542;28;20073;-56
2022/10/16 09:40:35;;;;;;;1.42;1.00;;;19.50;99.90;;;;;;10087733;28;20563;-54
2022/10/16 09:45:26;;;;;;;1.75;1.20;;;19.70;99.90;;;;;;10086169;28;20095;-58
2022/10/16 09:50:26;;;;;;;2.50;1.10;;;19.70;99.90;;;;;;10096602;28;20029;-57
2022/10/16 09:55:18;;;;;;;1.60;1.10;;;19.90;99.90;;;;;;10092922;28;20061;-59
2022/10/16 10:00:09;;;;;;;1.92;1.15;;;20.10;99.90;;;;;;10097327;28;20086;-57
2022/10/16 10:05:00;;;;;;;1.92;1.50;;;20.30;99.90;;;;;;10096910;28;20029;-54
2022/10/16 10:09:51;;;;;;;4.60;1.67;;;20.40;99.90;;;;;;10097925;28;20032;-56
2022/10/16 10:14:47;;;;;;;1.95;1.40;;;20.50;99.90;;;;;;10096810;28;20059;-56
2022/10/16 10:19:40;;;;;;;1.50;1.20;;;20.60;99.90;;;;;;10089675;28;20059;-57
2022/10/16 10:24:30;;;;;;;2.80;1.70;;;20.60;99.90;;;;;;10096575;28;20044;-55
2022/10/16 10:29:38;;;;;;;2.67;1.10;;;20.70;99.90;;;;;;10097735;28;20028;-56
2022/10/16 10:34:41;;;;;;;2.35;1.23;;;20.80;99.90;;;;;;10095574;28;20542;-57
2022/10/16 10:39:48;;;;;;;4.38;1.70;;;20.90;99.90;;;;;;10096017;28;20038;-55
2022/10/16 10:44:57;;;;;;;4.07;1.40;;;21.10;99.90;;;;;;10096732;28;20035;-55
2022/10/16 10:50:02;;;;;;;2.97;1.45;;;21.10;99.90;;;;;;10096709;28;20074;-55
2022/10/16 10:55:13;;;;;;;2.50;1.25;;;21.00;99.90;;;;;;10088813;28;20052;-54
2022/10/16 11:00:09;;;;;;;4.15;1.70;;;21.00;99.90;;;;;;10096380;28;20036;-55
2022/10/16 11:05:30;;;;;;;14.27;2.47;;;21.00;99.90;;;;;;10095694;28;20017;-55
2022/10/16 11:10:26;;;;;;;2.15;1.48;;;21.00;99.90;;;;;;10089268;28;20657;-55
2022/10/16 11:15:32;;;;;;;3.55;2.00;;;21.10;99.90;;;;;;10103451;28;20033;-57
2022/10/16 11:20:47;;;;;;;3.35;1.92;;;21.10;99.90;;;;;;10103837;28;20047;-54
2022/10/16 11:25:39;;;;;;;2.40;1.52;;;21.10;99.90;;;;;;10103177;28;20023;-56
2022/10/16 11:30:33;;;;;;;7.18;1.73;;;21.00;99.90;;;;;;10104188;28;20033;-56
2022/10/16 11:35:36;;;;;;;4.35;1.75;;;20.90;99.90;;;;;;10109294;28;20115;-58
2022/10/16 11:40:41;;;;;;;4.35;1.88;;;20.80;99.90;;;;;;10098336;28;20047;-57
2022/10/16 11:45:49;;;;;;;3.23;1.40;;;20.90;99.90;;;;;;10101748;28;20021;-56
2022/10/16 11:50:55;;;;;;;4.40;1.35;;;21.00;99.90;;;;;;10106068;28;20274;-56
2022/10/16 11:55:46;;;;;;;7.90;2.17;;;21.20;99.90;;;;;;10094362;28;20041;-58
2022/10/16 12:00:57;;;;;;;5.25;1.40;;;21.20;99.90;;;;;;10103477;28;20036;-59
2022/10/16 12:06:03;;;;;;;2.60;1.77;;;21.10;99.90;;;;;;10104589;28;20021;-56
2022/10/16 12:10:55;;;;;;;4.68;1.92;;;21.10;99.90;;;;;;10102162;28;20127;-57
2022/10/16 12:15:45;;;;;;;3.17;1.45;;;21.00;99.90;;;;;;10101443;28;20017;-56
2022/10/16 12:20:38;;;;;;;5.53;1.50;;;21.00;99.90;;;;;;10100756;28;20021;-56
2022/10/16 12:25:46;;;;;;;2.70;1.23;;;21.10;99.90;;;;;;10099736;28;20025;-59
2022/10/16 12:30:37;;;;;;;3.00;1.42;;;21.40;99.90;;;;;;10102789;28;20032;-56
2022/10/16 12:35:31;;;;;;;3.17;1.52;;;21.60;99.90;;;;;;10100453;28;20017;-57
2022/10/16 12:40:30;;;;;;;2.47;1.25;;;21.60;99.90;;;;;;10093931;28;20025;-56
2022/10/16 12:45:27;;;;;;;2.65;1.30;;;21.60;99.90;;;;;;10108909;28;20123;-56
2022/10/16 12:50:31;;;;;;;2.50;1.40;;;21.60;99.90;;;;;;10100704;28;20454;-59
2022/10/16 12:55:23;;;;;;;2.50;1.50;;;21.90;99.90;;;;;;10094077;28;20056;-59
2022/10/16 13:00:18;;;;;;;2.63;1.30;;;22.20;99.90;;;;;;10105246;28;20425;-58
2022/10/16 13:05:46;;;;;;;3.03;1.42;;;22.80;99.90;;;;;;10099624;28;20495;-56
2022/10/16 13:10:47;;;;;;;3.53;1.55;;;23.10;99.90;;;;;;10092583;28;20418;-58
2022/10/16 13:16:16;;;;;;;4.40;2.20;;;23.30;99.90;;;;;;10099062;28;20033;-61
2022/10/16 13:21:10;;;;;;;6.05;1.88;;;23.80;99.90;;;;;;10068356;28;20021;-56
2022/10/16 13:26:27;;;;;;;2.78;1.63;;;24.80;99.90;;;;;;10097758;28;20063;-59
2022/10/16 13:31:22;;;;;;;2.85;1.75;;;25.20;99.90;;;;;;10077336;28;20080;-55
2022/10/16 13:36:26;;;;;;;2.88;1.40;;;25.40;99.90;;;;;;10097818;28;20064;-58
2022/10/16 13:41:18;;;;;;;6.43;1.95;;;25.60;99.90;;;;;;10105832;28;20409;-59
2022/10/16 13:46:14;;;;;;;2.25;1.20;;;26.10;99.90;;;;;;10097875;28;20028;-56
2022/10/16 13:51:12;;;;;;;2.47;1.65;;;26.50;99.90;;;;;;10086115;28;20697;-57
2022/10/16 13:56:05;;;;;;;2.20;1.40;;;26.90;99.90;;;;;;10092486;28;20140;-57
2022/10/16 14:01:01;;;;;;;3.63;1.60;;;27.40;99.90;;;;;;10097351;28;20055;-58
2022/10/16 14:05:56;;;;;;;4.32;1.90;;;28.20;99.90;;;;;;10097109;28;20013;-56
2022/10/16 14:10:53;;;;;;;4.70;1.55;;;28.60;99.90;;;;;;10096606;28;20025;-56
2022/10/16 14:15:48;;;;;;;3.58;1.73;;;28.40;99.80;;;;;;10097046;28;20435;-57
2022/10/16 14:20:39;;;;;;;2.08;1.80;;;28.60;99.10;;;;;;10096526;28;20025;-56
2022/10/16 14:25:31;;;;;;;2.55;1.35;;;30.50;97.90;;;;;;10095368;28;20025;-57
2022/10/16 14:30:23;;;;;;;2.97;1.35;;;31.20;96.50;;;;;;10099479;28;20510;-56
2022/10/16 14:35:43;;;;;;;2.42;1.77;;;31.20;95.60;;;;;;10096309;28;20124;-56
2022/10/16 14:40:37;;;;;;;4.30;2.17;;;31.00;94.50;;;;;;10082075;28;20033;-57
2022/10/16 14:45:32;;;;;;;3.13;1.70;;;32.20;93.40;;;;;;10100261;28;20565;-58
2022/10/16 14:50:23;;;;;;;7.20;1.30;;;31.40;92.80;;;;;;10104626;28;20013;-58
2022/10/16 14:55:14;;;;;;;2.38;1.58;;;31.80;91.90;;;;;;10098898;28;20447;-57
2022/10/16 15:00:31;;;;;;;2.33;1.88;;;30.30;91.40;;;;;;10108709;28;20040;-54
2022/10/16 15:05:27;;;;;;;3.85;1.58;;;28.50;92.30;;;;;;10101140;28;20452;-58
2022/10/16 15:10:18;;;;;;;4.10;2.17;;;27.70;92.80;;;;;;10092603;28;20021;-55
2022/10/16 15:15:34;;;;;;;3.63;2.83;;;27.10;92.80;;;;;;10103224;28;20411;-56
2022/10/16 15:20:35;;;;;;;2.67;1.75;;;26.60;92.80;;;;;;10085611;28;20033;-56
2022/10/16 15:25:32;;;;;;;2.15;1.63;;;26.30;92.80;;;;;;10102388;28;20211;-54
2022/10/16 15:30:22;;;;;;;2.70;1.75;;;26.20;92.70;;;;;;10102441;28;20194;-55
2022/10/16 15:35:13;;;;;;;5.07;2.20;;;26.00;92.90;;;;;;10102427;28;20128;-59
2022/10/16 15:40:04;;;;;;;12.18;7.50;;;25.80;93.10;;;;;;10100826;28;20017;-56
2022/10/16 15:44:55;;;;;;;10.23;5.55;;;25.50;93.30;;;;;;10101532;28;20104;-55
2022/10/16 15:49:45;;;;;;;4.70;3.20;;;27.40;92.60;;;;;;10102105;28;20115;-57
2022/10/16 15:54:36;;;;;;;9.70;4.90;;;28.70;91.50;;;;;;10097309;28;20096;-58
2022/10/16 15:59:27;;;;;;;6.45;3.30;;;26.50;92.70;;;;;;10101293;28;20270;-58
2022/10/16 16:04:17;;;;;;;8.57;4.13;;;24.80;94.50;;;;;;10101757;28;20040;-59
2022/10/16 16:09:08;;;;;;;17.70;10.60;;;24.00;95.40;;;;;;10099984;28;20035;-58
2022/10/16 16:13:59;;;;;;;66.45;39.17;;;23.50;96.00;;;;;;10100782;28;20028;-58
2022/10/16 16:18:53;;;;;;;14.68;9.82;;;23.10;96.60;;;;;;10107351;28;20387;-59
2022/10/16 16:23:43;;;;;;;21.08;10.25;;;22.70;97.10;;;;;;10100729;28;20434;-57
2022/10/16 16:28:34;;;;;;;15.98;8.60;;;22.50;97.60;;;;;;10102850;28;20031;-56
2022/10/16 16:33:25;;;;;;;8.02;5.25;;;22.20;98.10;;;;;;10086894;28;20033;-60
2022/10/16 16:38:16;;;;;;;11.77;5.22;;;22.00;98.50;;;;;;10095011;28;20063;-59
2022/10/16 16:43:06;;;;;;;14.63;7.20;;;21.80;99.10;;;;;;10096612;28;20108;-60
2022/10/16 16:47:57;;;;;;;10.20;6.35;;;21.70;99.40;;;;;;10095252;28;20033;-59
2022/10/16 16:52:48;;;;;;;11.18;6.22;;;21.60;99.70;;;;;;10098675;28;20508;-58
2022/10/16 16:57:39;;;;;;;12.52;7.60;;;21.60;99.90;;;;;;10096196;28;20049;-60
2022/10/16 17:02:29;;;;;;;16.80;9.00;;;21.50;99.90;;;;;;10099949;28;20051;-58
2022/10/16 17:07:20;;;;;;;8.32;5.57;;;21.30;99.90;;;;;;10097515;28;20159;-62
2022/10/16 17:12:10;;;;;;;9.60;5.53;;;21.20;99.90;;;;;;10098910;28;20411;-59
2022/10/16 17:17:01;;;;;;;8.75;5.22;;;21.10;99.90;;;;;;10098607;28;20099;-60
2022/10/16 17:21:52;;;;;;;11.65;7.90;;;21.00;99.90;;;;;;10103217;28;20023;-59
2022/10/16 17:26:47;;;;;;;16.45;7.78;;;20.90;99.90;;;;;;10100618;28;20558;-59
2022/10/16 17:31:38;;;;;;;8.57;6.07;;;20.90;99.90;;;;;;10101518;28;20033;-60
2022/10/16 17:36:32;;;;;;;7.70;5.25;;;20.90;99.90;;;;;;10093100;28;20025;-56
2022/10/16 17:41:23;;;;;;;12.23;5.90;;;20.80;99.90;;;;;;10097493;28;20031;-59
2022/10/16 17:46:16;;;;;;;18.35;9.57;;;20.70;99.90;;;;;;10081964;28;20421;-57
2022/10/16 17:51:08;;;;;;;26.60;14.77;;;20.70;99.90;;;;;;10095309;28;20599;-56
2022/10/16 17:56:02;;;;;;;14.52;6.13;;;20.50;99.90;;;;;;10092508;28;20053;-60
2022/10/16 18:00:53;;;;;;;8.70;4.38;;;20.50;99.90;;;;;;10091864;28;20127;-58
2022/10/16 18:05:44;;;;;;;5.93;4.40;;;20.60;99.90;;;;;;10091408;28;20392;-59
2022/10/16 18:10:34;;;;;;;13.02;4.82;;;20.50;99.90;;;;;;10091744;28;20029;-59
2022/10/16 18:15:25;;;;;;;9.13;5.68;;;20.40;99.90;;;;;;10091429;28;20151;-60
2022/10/16 18:20:16;;;;;;;8.90;5.32;;;20.50;99.90;;;;;;10091900;28;20036;-58
2022/10/16 18:25:06;;;;;;;12.85;6.57;;;20.40;99.90;;;;;;10089831;28;20104;-58
2022/10/16 18:29:58;;;;;;;8.65;4.70;;;20.30;99.90;;;;;;10092206;28;20298;-59
2022/10/16 18:34:49;;;;;;;9.15;4.80;;;20.30;99.90;;;;;;10090108;28;20041;-60
2022/10/16 18:39:40;;;;;;;14.63;6.10;;;20.20;99.90;;;;;;10090764;28;20017;-60
2022/10/16 18:44:31;;;;;;;10.13;5.90;;;20.20;99.90;;;;;;10086383;28;20408;-60
2022/10/16 18:49:22;;;;;;;9.73;5.90;;;20.10;99.90;;;;;;10086414;28;20028;-58
2022/10/16 18:54:13;;;;;;;18.67;5.80;;;20.10;99.90;;;;;;10083045;28;20049;-59
2022/10/16 18:59:06;;;;;;;9.02;5.15;;;20.10;99.90;;;;;;10085700;28;20111;-59
2022/10/16 19:04:03;;;;;;;13.77;5.60;;;20.00;99.90;;;;;;10088042;28;20025;-59
2022/10/16 19:08:55;;;;;;;12.38;5.70;;;19.90;99.90;;;;;;10090406;28;20032;-59
2022/10/16 19:13:47;;;;;;;10.85;6.55;;;19.80;99.90;;;;;;10087734;28;20562;-58
2022/10/16 19:18:38;;;;;;;8.52;5.57;;;19.80;99.90;;;;;;10091063;28;20017;-60
2022/10/16 19:23:28;;;;;;;11.80;6.50;;;19.70;99.90;;;;;;10090033;28;20025;-60
2022/10/16 19:28:19;;;;;;;16.13;6.65;;;19.60;99.90;;;;;;10092500;28;20226;-58
2022/10/16 19:33:10;;;;;;;12.13;6.38;;;19.60;99.90;;;;;;10095200;28;20546;-58
2022/10/16 19:38:00;;;;;;;8.48;6.03;;;19.50;99.90;;;;;;10098367;28;20037;-60
2022/10/16 19:42:51;;;;;;;9.77;6.45;;;19.50;99.90;;;;;;10097271;28;20194;-60
2022/10/16 19:47:44;;;;;;;10.63;5.97;;;19.50;99.90;;;;;;10098417;28;20438;-61
2022/10/16 19:52:36;;;;;;;9.38;6.57;;;19.40;99.90;;;;;;10097501;28;20029;-60
2022/10/16 19:57:27;;;;;;;16.10;8.13;;;19.40;99.90;;;;;;10089593;28;20459;-61
2022/10/16 20:02:18;;;;;;;13.98;7.28;;;19.30;99.90;;;;;;10097364;28;20116;-61
2022/10/16 20:07:08;;;;;;;11.30;6.10;;;19.30;99.90;;;;;;10085898;28;20503;-62
2022/10/16 20:11:59;;;;;;;15.00;6.95;;;19.30;99.90;;;;;;10093909;28;20033;-60
2022/10/16 20:16:52;;;;;;;15.65;6.85;;;19.20;99.90;;;;;;10092751;28;20565;-60
2022/10/16 20:21:42;;;;;;;10.10;6.53;;;19.20;99.90;;;;;;10090934;28;20033;-60
2022/10/16 20:26:33;;;;;;;9.07;6.30;;;19.20;99.90;;;;;;10096589;28;20088;-59
2022/10/16 20:31:26;;;;;;;10.45;6.38;;;19.10;99.90;;;;;;10093888;28;20078;-60
2022/10/16 20:36:18;;;;;;;11.82;6.65;;;19.10;99.90;;;;;;10092347;28;20100;-58
2022/10/16 20:41:10;;;;;;;14.40;6.95;;;19.00;99.90;;;;;;10095581;28;20051;-59
2022/10/16 20:46:04;;;;;;;10.30;6.18;;;19.00;99.90;;;;;;10095897;28;20449;-59
2022/10/16 20:50:55;;;;;;;11.13;6.88;;;18.90;99.90;;;;;;10093929;28;20545;-59
2022/10/16 20:55:45;;;;;;;14.13;8.18;;;18.80;99.90;;;;;;10091090;28;20090;-57
2022/10/16 21:00:36;;;;;;;11.50;6.97;;;18.80;99.90;;;;;;10094645;28;20021;-59
2022/10/16 21:05:28;;;;;;;9.32;6.30;;;18.70;99.90;;;;;;10093914;28;20204;-58
2022/10/16 21:10:19;;;;;;;9.82;5.60;;;18.70;99.90;;;;;;10094327;28;20032;-63
2022/10/16 21:15:11;;;;;;;9.40;6.15;;;18.60;99.90;;;;;;10093725;28;20041;-60
2022/10/16 21:20:02;;;;;;;8.57;5.07;;;18.60;99.90;;;;;;10093758;28;20462;-59
2022/10/16 21:24:53;;;;;;;7.28;4.20;;;18.60;99.90;;;;;;10097932;28;20104;-59
2022/10/16 21:29:43;;;;;;;6.15;4.28;;;18.50;99.90;;;;;;10099996;28;20027;-60
2022/10/16 21:34:34;;;;;;;6.70;3.85;;;18.60;99.90;;;;;;10098250;28;20429;-60
2022/10/16 21:39:25;;;;;;;8.40;3.47;;;18.50;99.90;;;;;;10098082;28;20020;-64
2022/10/16 21:44:18;;;;;;;5.78;3.30;;;18.50;99.90;;;;;;10095087;28;20082;-60
2022/10/16 21:49:12;;;;;;;9.20;4.18;;;18.50;99.90;;;;;;10094239;28;20025;-58
2022/10/16 21:54:05;;;;;;;8.05;4.38;;;18.40;99.90;;;;;;10092278;28;20449;-60
2022/10/16 21:58:56;;;;;;;3.88;2.78;;;18.40;99.90;;;;;;10090213;28;20056;-60
2022/10/16 22:03:47;;;;;;;5.18;2.83;;;18.40;99.90;;;;;;10092242;28;20021;-58
2022/10/16 22:08:39;;;;;;;8.45;3.03;;;18.30;99.90;;;;;;10092830;28;20031;-57
2022/10/16 22:13:30;;;;;;;7.35;2.92;;;18.30;99.90;;;;;;10092469;28;20041;-57
2022/10/16 22:18:21;;;;;;;7.55;2.40;;;18.30;99.90;;;;;;10092488;28;20053;-55
2022/10/16 22:23:12;;;;;;;4.85;2.78;;;18.30;99.90;;;;;;10090823;28;20043;-59
2022/10/16 22:28:02;;;;;;;3.50;2.28;;;18.30;99.90;;;;;;10092438;28;20052;-60
2022/10/16 22:32:53;;;;;;;5.78;2.40;;;18.30;99.90;;;;;;10091355;28;20475;-59
2022/10/16 22:37:44;;;;;;;4.65;2.45;;;18.30;99.90;;;;;;10091904;28;20463;-59
2022/10/16 22:42:34;;;;;;;3.92;3.08;;;18.30;99.90;;;;;;10091109;28;20434;-59
2022/10/16 22:47:25;;;;;;;5.03;2.88;;;18.20;99.90;;;;;;10090764;28;20514;-59
2022/10/16 22:52:16;;;;;;;6.85;3.67;;;18.10;99.90;;;;;;10092181;28;20499;-58
2022/10/16 22:57:06;;;;;;;4.13;2.53;;;18.20;99.90;;;;;;10090777;28;20049;-57
2022/10/16 23:01:57;;;;;;;7.07;3.33;;;18.10;99.90;;;;;;10095830;28;20066;-59
2022/10/16 23:06:47;;;;;;;4.70;2.25;;;18.00;99.90;;;;;;10098682;28;20051;-58
2022/10/16 23:11:38;;;;;;;5.43;2.63;;;18.00;99.90;;;;;;10102313;28;20087;-59
2022/10/16 23:16:29;;;;;;;4.82;3.03;;;17.90;99.90;;;;;;10099221;28;20082;-56
2022/10/16 23:21:24;;;;;;;6.47;2.80;;;17.90;99.90;;;;;;10098994;28;20044;-58
2022/10/16 23:26:24;;;;;;;3.97;2.50;;;17.90;99.90;;;;;;10097785;28;20031;-60
2022/10/16 23:31:15;;;;;;;5.13;2.58;;;17.80;99.90;;;;;;10094795;28;20075;-59
2022/10/16 23:36:11;;;;;;;4.57;2.45;;;17.80;99.90;;;;;;10094074;28;20507;-60
2022/10/16 23:41:02;;;;;;;4.38;2.88;;;17.70;99.90;;;;;;10091093;28;20279;-58
2022/10/16 23:45:53;;;;;;;4.00;2.70;;;17.70;99.90;;;;;;10094144;28;20643;-58
2022/10/16 23:50:43;;;;;;;3.90;2.45;;;17.60;99.90;;;;;;10096894;28;20370;-61
2022/10/16 23:55:34;;;;;;;5.78;3.40;;;17.50;99.90;;;;;;10094639;28;20045;-60
